createdAt,value
2022-11-04T00:03:22.707Z,17.40
2022-11-04T00:08:26.280Z,15.95
2022-11-04T00:13:29.696Z,14.82
2022-11-04T00:18:31.869Z,21.77
2022-11-04T00:23:50.222Z,19.90
2022-11-04T00:28:53.001Z,16.80
2022-11-04T00:33:56.900Z,26.85
2022-11-04T00:38:57.879Z,18.13
2022-11-04T00:44:00.498Z,16.83
2022-11-04T00:49:02.665Z,18.73
2022-11-04T00:54:03.465Z,21.27
2022-11-04T00:59:04.601Z,25.42
2022-11-04T01:04:06.822Z,23.83
2022-11-04T01:09:10.000Z,19.05
2022-11-04T01:14:10.957Z,22.65
2022-11-04T01:19:13.431Z,21.80
2022-11-04T01:24:14.246Z,23.58
2022-11-04T01:29:15.129Z,20.00
2022-11-04T01:34:17.300Z,30.75
2022-11-04T01:39:18.102Z,26.80
2022-11-04T01:44:47.696Z,26.10
2022-11-04T01:49:53.576Z,30.52
2022-11-04T01:54:57.309Z,28.65
2022-11-04T02:00:02.398Z,28.77
2022-11-04T02:05:14.260Z,30.13
2022-11-04T02:10:15.220Z,35.08
2022-11-04T02:15:16.210Z,30.25
2022-11-04T02:20:41.748Z,31.55
2022-11-04T02:26:10.402Z,29.85
2022-11-04T02:31:19.082Z,33.35
2022-11-04T02:36:26.338Z,35.55
2022-11-04T02:41:37.298Z,36.17
2022-11-04T02:46:47.169Z,31.83
2022-11-04T02:51:52.626Z,29.50
2022-11-04T02:56:57.239Z,35.28
2022-11-04T03:02:02.315Z,34.45
2022-11-04T03:07:07.255Z,34.85
2022-11-04T03:12:14.961Z,27.67
2022-11-04T03:17:23.510Z,36.97
2022-11-04T03:22:28.153Z,37.25
2022-11-04T03:27:36.264Z,34.13
2022-11-04T03:32:44.872Z,33.92
2022-11-04T03:37:48.528Z,31.85
2022-11-04T03:42:57.045Z,31.13
2022-11-04T03:47:59.498Z,30.23
2022-11-04T03:53:01.434Z,39.22
2022-11-04T03:58:09.570Z,35.40
2022-11-04T04:03:18.982Z,30.63
2022-11-04T04:08:33.020Z,29.92
2022-11-04T04:13:40.024Z,31.33
2022-11-04T04:18:52.620Z,37.92
2022-11-04T04:24:18.906Z,33.22
2022-11-04T04:29:21.182Z,41.72
2022-11-04T04:34:25.381Z,30.23
2022-11-04T04:39:46.574Z,33.67
2022-11-04T04:45:03.347Z,38.47
2022-11-04T04:50:06.856Z,39.40
2022-11-04T04:55:08.771Z,36.10
2022-11-04T05:00:13.364Z,35.90
2022-11-04T05:10:21.559Z,44.50
2022-11-04T05:15:22.394Z,44.40
2022-11-04T05:20:25.694Z,52.03
2022-11-04T05:25:26.581Z,45.83
2022-11-04T05:30:27.549Z,59.55
2022-11-04T05:35:29.758Z,67.22
2022-11-04T05:40:30.566Z,69.95
2022-11-04T05:45:31.543Z,72.20
2022-11-04T05:50:34.916Z,67.88
2022-11-04T05:55:35.718Z,71.57
2022-11-04T06:00:36.533Z,79.82
2022-11-04T06:05:38.800Z,72.65
2022-11-04T06:10:39.578Z,79.40
2022-11-04T06:15:40.367Z,77.45
2022-11-04T06:20:42.490Z,83.60
2022-11-04T06:25:43.335Z,83.95
2022-11-04T06:30:44.241Z,84.95
2022-11-04T06:35:46.374Z,87.75
2022-11-04T06:40:47.194Z,84.72
2022-11-04T06:45:54.391Z,74.97
2022-11-04T06:50:56.565Z,77.85
2022-11-04T06:56:04.022Z,71.90
2022-11-04T07:01:11.120Z,76.82
2022-11-04T07:06:15.819Z,70.18
2022-11-04T07:11:17.128Z,47.40
2022-11-04T07:16:19.066Z,51.40
2022-11-04T07:21:21.238Z,50.30
2022-11-04T07:26:22.683Z,39.92
2022-11-04T07:31:23.524Z,31.33
2022-11-04T07:36:25.705Z,28.88
2022-11-04T07:41:26.513Z,34.47
2022-11-04T07:46:27.625Z,38.13
2022-11-04T07:51:32.280Z,30.58
2022-11-04T07:56:33.112Z,32.58
2022-11-04T08:01:34.483Z,27.60
2022-11-04T08:06:36.682Z,33.08
2022-11-04T08:11:37.543Z,27.80
2022-11-04T08:16:38.392Z,18.15
2022-11-04T08:21:40.568Z,17.67
2022-11-04T08:26:42.244Z,16.60
2022-11-04T08:31:43.409Z,17.08
2022-11-04T08:36:46.561Z,17.23
2022-11-04T08:41:48.125Z,20.13
2022-11-04T08:46:49.810Z,13.45
2022-11-04T08:51:56.799Z,11.05
2022-11-04T08:56:57.795Z,11.32
2022-11-04T09:01:58.689Z,15.68
2022-11-04T09:07:07.849Z,8.95
2022-11-04T09:12:10.964Z,11.35
2022-11-04T09:17:11.887Z,9.70
2022-11-04T09:22:14.105Z,9.30
2022-11-04T09:27:15.191Z,9.35
2022-11-04T09:32:16.132Z,11.40
2022-11-04T09:37:18.333Z,7.97
2022-11-04T09:42:34.483Z,8.25
2022-11-04T09:47:37.634Z,11.57
2022-11-04T09:52:44.511Z,13.13
2022-11-04T09:57:46.054Z,10.45
2022-11-04T10:03:00.962Z,10.57
2022-11-04T10:08:24.787Z,10.18
2022-11-04T10:13:36.609Z,12.80
2022-11-04T10:18:49.778Z,14.50
2022-11-04T10:24:07.754Z,19.42
2022-11-04T10:29:24.764Z,16.90
2022-11-04T10:34:33.586Z,20.70
2022-11-04T10:39:40.929Z,13.10
2022-11-04T10:44:41.795Z,11.60
2022-11-04T10:50:26.384Z,9.93
2022-11-04T10:55:32.013Z,8.32
2022-11-04T11:00:41.478Z,7.93
2022-11-04T11:05:42.382Z,7.88
2022-11-04T11:10:52.814Z,8.18
2022-11-04T11:16:07.083Z,10.80
2022-11-04T11:21:12.085Z,9.38
2022-11-04T11:26:17.426Z,11.73
2022-11-04T11:31:24.386Z,14.63
2022-11-04T11:36:27.880Z,10.45
2022-11-04T11:41:32.378Z,7.72
2022-11-04T11:46:35.690Z,10.73
2022-11-04T11:51:38.853Z,9.88
2022-11-04T11:57:12.123Z,10.57
2022-11-04T12:02:26.708Z,7.75
2022-11-04T12:13:18.472Z,7.63
2022-11-04T12:18:58.822Z,8.82
2022-11-04T12:24:06.839Z,8.68
2022-11-04T12:29:29.782Z,9.25
2022-11-04T12:34:40.617Z,7.20
2022-11-04T12:39:59.294Z,5.40
2022-11-04T12:45:16.916Z,8.18
2022-11-04T12:50:35.557Z,6.45
2022-11-04T12:55:48.026Z,8.75
2022-11-04T13:00:59.971Z,6.68
2022-11-04T13:06:04.837Z,12.10
2022-11-04T13:11:22.760Z,9.10
2022-11-04T13:16:25.282Z,9.55
2022-11-04T13:21:28.527Z,9.90
2022-11-04T13:26:29.317Z,9.68
2022-11-04T13:31:39.667Z,11.38
2022-11-04T13:36:47.591Z,15.77
2022-11-04T13:42:10.695Z,11.13
2022-11-04T13:47:22.142Z,11.18
2022-11-04T13:52:29.329Z,11.75
2022-11-04T13:57:32.273Z,21.15
2022-11-04T14:02:44.860Z,13.23
2022-11-04T14:08:16.849Z,13.82
2022-11-04T14:13:51.299Z,12.65
2022-11-04T14:18:54.832Z,14.95
2022-11-04T14:23:58.021Z,14.73
2022-11-04T14:29:03.630Z,14.65
2022-11-04T14:34:06.947Z,17.10
2022-11-04T14:39:21.990Z,14.20
2022-11-04T14:44:30.849Z,17.58
2022-11-04T14:49:43.503Z,14.93
2022-11-04T14:54:44.631Z,15.18
2022-11-04T14:59:45.845Z,17.60
2022-11-04T15:04:51.620Z,16.60
2022-11-04T15:09:52.422Z,19.20
2022-11-04T15:14:53.442Z,21.85
2022-11-04T15:19:59.569Z,15.48
2022-11-04T15:25:05.988Z,11.80
2022-11-04T15:30:21.551Z,10.35
2022-11-04T15:35:24.216Z,11.70
2022-11-04T15:40:27.604Z,13.07
2022-11-04T15:45:39.115Z,11.25
2022-11-04T15:50:42.972Z,13.73
2022-11-04T15:55:43.984Z,15.90
2022-11-04T16:00:53.658Z,15.23
2022-11-04T16:06:07.753Z,18.75
2022-11-04T16:11:17.488Z,21.27
2022-11-04T16:16:25.556Z,20.73
2022-11-04T16:21:30.865Z,15.48
2022-11-04T16:26:38.253Z,18.20
2022-11-04T16:31:39.044Z,14.95
2022-11-04T16:36:41.510Z,20.05
2022-11-04T16:41:42.705Z,18.33
2022-11-04T16:46:45.410Z,17.13
2022-11-04T16:51:51.211Z,16.13
2022-11-04T16:56:52.098Z,18.23
2022-11-04T17:01:53.112Z,19.63
2022-11-04T17:06:55.553Z,17.90
2022-11-04T17:11:56.385Z,20.42
2022-11-04T17:17:00.138Z,17.35
2022-11-04T17:22:05.248Z,19.52
2022-11-04T17:27:06.499Z,17.10
2022-11-04T17:32:07.545Z,15.15
2022-11-04T17:37:11.990Z,15.45
2022-11-04T17:42:30.440Z,14.88
2022-11-04T17:47:36.469Z,17.05
2022-11-04T17:52:40.054Z,15.98
2022-11-04T17:57:40.931Z,21.30
2022-11-04T18:02:42.984Z,15.55
2022-11-04T18:07:48.227Z,22.27
2022-11-04T18:12:49.463Z,17.90
2022-11-04T18:17:52.626Z,15.00
2022-11-04T18:22:54.837Z,17.83
2022-11-04T18:27:55.636Z,19.13
2022-11-04T18:32:58.553Z,19.15
2022-11-04T18:38:00.734Z,21.27
2022-11-04T18:43:08.500Z,21.38
2022-11-04T18:48:10.169Z,22.95
2022-11-04T18:53:13.065Z,18.38
2022-11-04T18:58:13.909Z,20.05
2022-11-04T19:03:14.685Z,18.25
2022-11-04T19:08:16.890Z,21.00
2022-11-04T19:13:20.606Z,21.73
2022-11-04T19:18:21.507Z,23.83
2022-11-04T19:23:23.766Z,23.52
2022-11-04T19:28:40.387Z,22.75
2022-11-04T19:33:45.589Z,20.73
2022-11-04T19:38:48.319Z,19.25
2022-11-04T19:43:49.241Z,24.50
2022-11-04T19:48:50.035Z,24.50
2022-11-04T19:53:52.256Z,22.42
2022-11-04T19:58:53.179Z,19.20
2022-11-04T20:03:54.157Z,23.13
2022-11-04T20:08:56.312Z,21.60
2022-11-04T20:13:57.297Z,17.67
2022-11-04T20:19:01.416Z,19.73
2022-11-04T20:24:06.512Z,29.20
2022-11-04T20:29:08.177Z,24.45
2022-11-04T20:34:12.266Z,27.05
2022-11-04T20:39:17.122Z,21.52
2022-11-04T20:44:18.053Z,18.02
2022-11-04T20:49:18.859Z,20.73
2022-11-04T20:54:21.631Z,20.58
2022-11-04T20:59:22.496Z,22.58
2022-11-04T21:04:23.401Z,21.65
2022-11-04T21:09:25.671Z,16.95
2022-11-04T21:14:26.495Z,18.42
2022-11-04T21:19:27.286Z,24.20
2022-11-04T21:24:29.489Z,22.80
2022-11-04T21:29:30.315Z,20.83
2022-11-04T21:34:31.094Z,21.23
2022-11-04T21:39:33.219Z,20.77
2022-11-04T21:44:34.048Z,17.38
2022-11-04T21:49:34.964Z,22.02
2022-11-04T21:54:37.456Z,17.33
2022-11-04T21:59:38.262Z,22.85
2022-11-04T22:04:39.061Z,18.33
2022-11-04T22:09:41.232Z,28.83
2022-11-04T22:14:42.117Z,23.02
2022-11-04T22:19:42.909Z,20.67
2022-11-04T22:25:03.023Z,22.27
2022-11-04T22:30:03.976Z,24.92
2022-11-04T22:35:05.255Z,25.20
2022-11-04T22:40:09.191Z,27.05
2022-11-04T22:45:16.347Z,24.38
2022-11-04T22:50:17.892Z,26.92
2022-11-04T22:55:20.012Z,29.75
2022-11-04T23:00:22.484Z,25.63
2022-11-04T23:05:23.266Z,30.70
2022-11-04T23:10:42.776Z,31.17
2022-11-04T23:16:00.920Z,25.50
2022-11-04T23:21:19.520Z,24.17
2022-11-04T23:26:26.561Z,25.35
2022-11-04T23:31:28.573Z,30.55
2022-11-04T23:36:47.011Z,32.53
2022-11-04T23:42:06.488Z,29.13
2022-11-04T23:47:24.999Z,24.05
2022-11-04T23:52:43.397Z,24.85
2022-11-04T23:58:03.181Z,26.67
